createdAt,value
2023-07-03T04:43:58.503Z,71.17
2023-07-03T04:46:28.081Z,71.08
2023-07-03T04:49:01.638Z,71.29
2023-07-03T04:51:32.715Z,71.43
2023-07-03T04:54:01.042Z,71.30
2023-07-03T04:56:29.010Z,71.38
2023-07-03T04:58:56.525Z,71.41
2023-07-03T05:01:26.480Z,71.43
2023-07-03T05:03:53.972Z,71.54
2023-07-03T05:06:21.412Z,71.62
2023-07-03T05:08:49.055Z,71.74
2023-07-03T05:11:16.558Z,71.59
2023-07-03T05:13:48.847Z,71.57
2023-07-03T05:16:16.327Z,71.57
2023-07-03T05:18:43.969Z,71.50
2023-07-03T05:21:12.221Z,71.60
2023-07-03T05:23:39.659Z,71.59
2023-07-03T05:26:07.210Z,71.68
2023-07-03T05:28:37.848Z,71.75
2023-07-03T05:31:07.795Z,71.63
2023-07-03T05:33:35.279Z,71.56
2023-07-03T05:36:03.163Z,71.37
2023-07-03T05:38:31.230Z,71.44
2023-07-03T05:40:58.694Z,71.51
2023-07-03T05:43:28.141Z,71.34
2023-07-03T05:45:55.752Z,71.07
2023-07-03T05:48:24.868Z,71.09
2023-07-03T05:50:52.425Z,71.22
2023-07-03T05:53:21.388Z,71.37
2023-07-03T05:55:57.283Z,71.38
2023-07-03T05:58:29.281Z,71.17
2023-07-03T06:00:57.145Z,71.42
2023-07-03T06:03:30.224Z,71.43
2023-07-03T06:05:58.103Z,71.60
2023-07-03T06:08:25.572Z,71.57
2023-07-03T06:10:53.992Z,71.67
2023-07-03T06:13:21.412Z,72.12
2023-07-03T06:15:49.362Z,72.44
2023-07-03T06:18:17.156Z,72.67
2023-07-03T06:20:44.609Z,72.73
2023-07-03T06:23:12.132Z,72.84
2023-07-03T06:25:41.867Z,73.00
2023-07-03T06:28:09.273Z,73.16
2023-07-03T06:30:36.692Z,73.29
2023-07-03T06:33:04.170Z,73.60
2023-07-03T06:35:34.953Z,73.86
2023-07-03T06:38:04.438Z,73.89
2023-07-03T06:40:31.940Z,73.94
2023-07-03T06:42:59.582Z,74.20
2023-07-03T06:45:29.435Z,74.32
2023-07-03T06:47:57.233Z,74.19
2023-07-03T06:50:30.565Z,74.32
2023-07-03T06:52:57.988Z,73.93
2023-07-03T06:55:25.467Z,73.35
2023-07-03T06:57:53.152Z,73.23
2023-07-03T07:00:20.916Z,73.46
2023-07-03T07:02:48.454Z,73.46
2023-07-03T07:05:16.103Z,73.63
2023-07-03T07:07:46.429Z,73.28
2023-07-03T07:10:13.866Z,72.81
2023-07-03T07:12:41.309Z,72.63
2023-07-03T07:15:09.086Z,72.36
2023-07-03T07:17:51.162Z,72.36
2023-07-03T07:20:19.895Z,72.58
2023-07-03T07:22:48.974Z,72.71
2023-07-03T07:25:16.687Z,72.64
2023-07-03T07:27:44.323Z,72.56
2023-07-03T07:30:12.491Z,72.23
2023-07-03T07:32:39.951Z,71.56
2023-07-03T07:35:09.627Z,71.39
2023-07-03T07:37:38.327Z,71.39
2023-07-03T07:40:07.005Z,71.29
2023-07-03T07:42:34.503Z,70.93
2023-07-03T07:45:01.966Z,70.87
2023-07-03T07:47:30.205Z,70.80
2023-07-03T07:49:59.492Z,70.48
2023-07-03T07:52:27.537Z,70.04
2023-07-03T07:54:56.365Z,69.60
2023-07-03T07:57:24.843Z,69.70
2023-07-03T07:59:52.241Z,69.19
2023-07-03T08:02:19.862Z,68.87
2023-07-03T08:04:47.606Z,68.98
2023-07-03T08:07:15.346Z,69.05
2023-07-03T08:09:42.784Z,68.84
2023-07-03T08:12:10.499Z,68.03
2023-07-03T08:14:37.881Z,67.98
2023-07-03T08:17:05.482Z,68.03
2023-07-03T08:19:32.915Z,67.75
2023-07-03T08:22:00.510Z,67.23
2023-07-03T08:24:28.022Z,67.38
2023-07-03T08:26:55.639Z,67.80
2023-07-03T08:29:23.041Z,68.36
2023-07-03T08:31:50.621Z,68.51
2023-07-03T08:34:18.598Z,68.28
2023-07-03T08:39:21.624Z,67.44
2023-07-03T08:41:57.361Z,67.18
2023-07-03T08:44:24.825Z,66.79
2023-07-03T08:47:06.071Z,66.44
2023-07-03T08:49:38.556Z,65.37
2023-07-03T08:52:06.261Z,65.18
2023-07-03T08:54:35.688Z,65.17
2023-07-03T08:57:04.712Z,64.39
2023-07-03T08:59:32.086Z,64.16
2023-07-03T09:02:11.135Z,64.21
2023-07-03T09:04:41.278Z,64.05
2023-07-03T09:07:30.250Z,64.00
2023-07-03T09:10:12.951Z,63.93
2023-07-03T09:12:43.486Z,63.69
2023-07-03T09:15:25.350Z,63.05
2023-07-03T09:17:54.309Z,62.94
2023-07-03T09:20:22.258Z,62.50
2023-07-03T09:23:07.363Z,62.62
2023-07-03T09:25:42.154Z,62.85
2023-07-03T09:28:13.753Z,62.33
2023-07-03T09:30:41.310Z,62.07
2023-07-03T09:33:08.966Z,62.14
2023-07-03T09:35:37.991Z,61.04
2023-07-03T09:38:06.914Z,59.87
2023-07-03T09:40:36.660Z,59.67
2023-07-03T09:43:04.825Z,59.31
2023-07-03T09:45:36.739Z,58.41
2023-07-03T09:48:13.658Z,57.84
2023-07-03T09:50:47.889Z,57.46
2023-07-03T10:00:52.398Z,56.13
2023-07-03T10:03:33.702Z,55.53
2023-07-03T10:08:46.923Z,55.64
2023-07-03T10:11:14.437Z,54.21
2023-07-03T10:13:45.681Z,53.35
2023-07-03T10:16:15.331Z,53.68
2023-07-03T10:18:49.823Z,53.95
2023-07-03T10:21:18.829Z,53.77
2023-07-03T10:23:46.319Z,53.59
2023-07-03T10:26:26.356Z,53.31
2023-07-03T10:29:15.053Z,53.54
2023-07-03T10:32:05.795Z,51.79
2023-07-03T10:34:45.887Z,52.03
2023-07-03T10:37:13.820Z,52.24
2023-07-03T10:39:43.037Z,51.38
2023-07-03T10:42:19.343Z,51.92
2023-07-03T10:44:46.794Z,52.10
2023-07-03T10:47:18.901Z,51.79
2023-07-03T10:49:46.902Z,51.44
2023-07-03T10:52:37.636Z,51.43
2023-07-03T10:55:25.419Z,50.89
2023-07-03T10:58:04.328Z,50.87
2023-07-03T11:00:36.042Z,50.10
2023-07-03T11:03:18.856Z,49.99
2023-07-03T11:06:02.746Z,49.69
2023-07-03T11:08:54.017Z,50.37
2023-07-03T11:11:27.039Z,51.29
2023-07-03T11:14:24.000Z,51.13
2023-07-03T11:17:06.830Z,50.13
2023-07-03T11:19:54.637Z,50.04
2023-07-03T11:25:12.645Z,49.56
2023-07-03T11:40:40.795Z,49.25
2023-07-03T11:43:30.203Z,48.94
2023-07-03T11:45:57.641Z,47.82
2023-07-03T11:48:31.365Z,47.24
2023-07-03T11:51:06.733Z,47.48
2023-07-03T11:53:38.181Z,48.48
2023-07-03T11:56:07.195Z,48.62
2023-07-03T11:58:35.094Z,47.97
2023-07-03T12:01:21.591Z,48.30
2023-07-03T12:04:03.706Z,48.02
2023-07-03T12:06:40.684Z,47.23
2023-07-03T12:09:20.573Z,46.70
2023-07-03T12:12:08.698Z,46.46
2023-07-03T12:14:43.011Z,46.53
2023-07-03T12:17:32.824Z,46.93
2023-07-03T12:20:07.779Z,47.61
2023-07-03T12:22:44.432Z,47.10
2023-07-03T12:25:18.471Z,46.70
2023-07-03T12:27:49.292Z,46.66
2023-07-03T12:30:26.036Z,46.57
2023-07-03T12:32:54.330Z,46.63
2023-07-03T12:35:26.545Z,46.96
2023-07-03T12:37:59.743Z,47.19
2023-07-03T12:40:27.426Z,48.07
2023-07-03T12:42:56.864Z,48.02
2023-07-03T12:45:29.816Z,48.41
2023-07-03T12:48:04.747Z,47.98
2023-07-03T12:50:35.367Z,48.16
2023-07-03T12:53:05.530Z,48.09
2023-07-03T12:55:34.983Z,47.87
2023-07-03T12:58:03.201Z,47.76
2023-07-03T13:00:32.028Z,47.24
2023-07-03T13:03:05.063Z,47.59
2023-07-03T13:05:33.735Z,48.25
2023-07-03T13:08:07.602Z,47.79
2023-07-03T13:10:35.051Z,47.60
2023-07-03T13:13:18.093Z,47.98
2023-07-03T13:15:45.978Z,47.95
2023-07-03T13:18:13.551Z,48.06
2023-07-03T13:21:10.511Z,47.82
2023-07-03T13:23:41.410Z,48.60
2023-07-03T13:26:14.072Z,48.29
2023-07-03T13:28:52.492Z,48.17
2023-07-03T13:31:21.881Z,48.49
2023-07-03T13:34:16.861Z,48.33
2023-07-03T13:37:10.513Z,47.76
2023-07-03T13:39:38.475Z,47.64
2023-07-03T13:42:06.294Z,47.78
2023-07-03T13:44:34.675Z,47.68
2023-07-03T13:47:02.125Z,47.58
2023-07-03T13:49:30.111Z,47.51
2023-07-03T13:51:58.612Z,47.93
2023-07-03T13:54:26.514Z,48.04
2023-07-03T13:56:54.074Z,48.07
2023-07-03T13:59:21.532Z,48.00
2023-07-03T14:01:49.060Z,47.67
2023-07-03T14:04:16.546Z,47.97
2023-07-03T14:06:44.050Z,48.04
2023-07-03T14:09:11.494Z,48.45
2023-07-03T14:11:38.896Z,48.51
2023-07-03T14:14:06.516Z,48.00
2023-07-03T14:16:33.922Z,47.67
2023-07-03T14:19:04.291Z,47.47
2023-07-03T14:21:33.436Z,47.76
2023-07-03T14:24:00.809Z,47.41
2023-07-03T14:26:28.330Z,47.83
2023-07-03T14:28:56.123Z,48.39
2023-07-03T14:31:23.544Z,47.97
2023-07-03T14:33:51.004Z,47.26
2023-07-03T14:36:18.465Z,47.33
2023-07-03T14:38:46.166Z,47.61
2023-07-03T14:41:14.439Z,47.78
2023-07-03T14:43:41.782Z,47.58
2023-07-03T14:46:09.286Z,47.33
2023-07-03T14:48:36.665Z,47.31
2023-07-03T14:51:04.311Z,47.54
2023-07-03T14:53:31.713Z,48.08
2023-07-03T14:56:01.943Z,48.07
2023-07-03T14:58:31.594Z,47.21
2023-07-03T15:01:02.774Z,47.02
2023-07-03T15:03:30.915Z,47.13
2023-07-03T15:05:58.782Z,47.57
2023-07-03T15:08:27.326Z,47.05
2023-07-03T15:10:54.854Z,47.32
2023-07-03T15:13:22.319Z,47.34
2023-07-03T15:15:50.714Z,47.47
2023-07-03T15:18:18.591Z,47.22
2023-07-03T15:20:47.426Z,47.09
2023-07-03T15:23:16.519Z,46.86
2023-07-03T15:25:44.108Z,46.90
2023-07-03T15:28:11.524Z,46.56
2023-07-03T15:30:40.593Z,46.79
2023-07-03T15:33:08.190Z,46.81
2023-07-03T15:35:35.857Z,46.85
2023-07-03T15:38:03.321Z,46.68
2023-07-03T15:40:30.745Z,46.55
2023-07-03T15:42:58.175Z,46.28
2023-07-03T15:45:26.554Z,46.08
2023-07-03T15:47:54.067Z,45.66
2023-07-03T15:50:21.572Z,45.81
2023-07-03T15:52:49.022Z,46.26
2023-07-03T15:55:17.865Z,46.22
2023-07-03T15:57:45.291Z,45.96
2023-07-03T16:00:13.573Z,45.54
2023-07-03T16:02:41.064Z,45.17
2023-07-03T16:05:08.585Z,45.13
2023-07-03T16:07:36.095Z,45.50
2023-07-03T16:10:03.674Z,45.34
2023-07-03T16:12:31.099Z,45.36
2023-07-03T16:14:58.701Z,45.60
2023-07-03T16:17:26.281Z,45.75
2023-07-03T16:20:04.976Z,45.13
2023-07-03T16:22:32.413Z,45.06
2023-07-03T16:25:00.092Z,45.34
2023-07-03T16:27:27.689Z,45.70
2023-07-03T16:29:55.143Z,46.25
2023-07-03T16:32:22.624Z,46.42
2023-07-03T16:34:50.221Z,46.80
2023-07-03T16:37:17.766Z,47.24
2023-07-03T16:39:45.409Z,47.46
2023-07-03T16:42:12.807Z,47.40
2023-07-03T16:44:40.271Z,47.05
2023-07-03T16:47:07.820Z,46.75
2023-07-03T16:49:35.402Z,46.28
2023-07-03T16:52:03.530Z,46.44
2023-07-03T16:54:30.908Z,46.92
2023-07-03T16:56:58.402Z,47.60
2023-07-03T17:01:32.526Z,48.51
2023-07-03T17:04:01.189Z,48.81
2023-07-03T17:06:32.305Z,48.95
2023-07-03T17:09:00.796Z,49.04
2023-07-03T17:11:28.463Z,48.98
2023-07-03T17:14:01.059Z,48.89
2023-07-03T17:16:30.257Z,49.23
2023-07-03T17:18:57.754Z,49.65
2023-07-03T17:21:25.198Z,49.96
2023-07-03T17:24:00.647Z,50.48
2023-07-03T17:26:28.622Z,50.61
2023-07-03T17:28:56.521Z,50.88
2023-07-03T17:31:27.549Z,50.85
2023-07-03T17:33:55.325Z,50.81
2023-07-03T17:36:24.261Z,50.95
2023-07-03T17:38:52.211Z,51.37
2023-07-03T17:41:20.513Z,51.60
2023-07-03T17:43:48.424Z,51.75
2023-07-03T17:46:17.162Z,51.78
2023-07-03T17:48:45.064Z,51.86
2023-07-03T17:51:12.721Z,52.13
2023-07-03T17:53:41.724Z,52.45
2023-07-03T17:56:09.181Z,52.83
2023-07-03T17:58:36.636Z,52.94
2023-07-03T18:01:04.683Z,53.19
2023-07-03T18:03:33.894Z,53.35
2023-07-03T18:06:01.898Z,53.58
2023-07-03T18:08:29.634Z,54.02
2023-07-03T18:10:57.014Z,54.49
2023-07-03T18:13:24.483Z,54.73
2023-07-03T18:15:51.957Z,55.01
2023-07-03T18:18:22.934Z,55.38
2023-07-03T18:20:50.394Z,56.02
2023-07-03T18:23:18.146Z,56.51
2023-07-03T18:25:48.207Z,56.66
2023-07-03T18:28:15.710Z,57.05
2023-07-03T18:30:43.175Z,57.57
2023-07-03T18:33:10.586Z,57.70
2023-07-03T18:35:38.127Z,57.79
2023-07-03T18:38:05.790Z,57.99
2023-07-03T18:40:33.349Z,57.93
2023-07-03T18:43:00.775Z,57.96
2023-07-03T18:45:31.108Z,58.29
2023-07-03T18:47:58.545Z,58.40
2023-07-03T18:50:26.491Z,58.55
2023-07-03T18:52:53.930Z,58.61
2023-07-03T18:55:22.624Z,58.72
2023-07-03T18:57:50.508Z,59.03
2023-07-03T19:00:18.060Z,59.30
2023-07-03T19:02:46.619Z,59.55
2023-07-03T19:05:14.522Z,59.77
2023-07-03T19:07:42.167Z,59.96
2023-07-03T19:12:41.358Z,59.84
2023-07-03T19:15:09.476Z,59.91
2023-07-03T19:17:36.911Z,60.03
2023-07-03T19:20:04.587Z,59.92
2023-07-03T19:22:32.505Z,60.19
2023-07-03T19:25:00.787Z,60.43
2023-07-03T19:27:28.174Z,60.66
2023-07-03T19:29:55.519Z,60.91
2023-07-03T19:32:25.281Z,61.16
2023-07-03T19:34:55.700Z,61.37
2023-07-03T19:37:23.255Z,61.58
2023-07-03T19:39:51.130Z,61.88
2023-07-03T19:42:18.601Z,61.99
2023-07-03T19:44:47.118Z,62.21
2023-07-03T19:47:14.649Z,62.32
2023-07-03T19:49:42.286Z,62.54
2023-07-03T19:52:11.989Z,62.97
2023-07-03T19:54:39.384Z,62.95
2023-07-03T19:57:06.947Z,63.30
2023-07-03T19:59:34.367Z,63.60
2023-07-03T20:02:02.325Z,63.91
2023-07-03T20:04:30.998Z,63.94
2023-07-03T20:07:00.055Z,64.16
2023-07-03T20:09:27.522Z,64.38
2023-07-03T20:11:55.014Z,64.72
2023-07-03T20:14:22.822Z,64.95
2023-07-03T20:16:50.261Z,65.07
2023-07-03T20:19:26.408Z,65.37
2023-07-03T20:21:53.829Z,65.79
2023-07-03T20:24:21.793Z,65.97
2023-07-03T20:26:49.233Z,66.14
2023-07-03T20:29:16.623Z,66.31
2023-07-03T20:31:44.147Z,66.39
2023-07-03T20:34:11.562Z,66.55
2023-07-03T20:36:39.339Z,66.80
2023-07-03T20:39:06.824Z,67.20
2023-07-03T20:41:34.301Z,67.47
2023-07-03T20:44:05.826Z,67.41
2023-07-03T20:46:33.362Z,67.44
2023-07-03T20:49:01.058Z,67.53
2023-07-03T20:51:34.354Z,67.58
2023-07-03T20:54:04.817Z,67.84
2023-07-03T20:56:37.312Z,67.97
2023-07-03T20:59:04.912Z,68.22
2023-07-03T21:01:34.307Z,68.27
2023-07-03T21:04:04.313Z,68.47
2023-07-03T21:06:35.776Z,68.75
2023-07-03T21:09:04.168Z,68.94
2023-07-03T21:11:32.842Z,69.19
2023-07-03T21:14:03.876Z,69.34
2023-07-03T21:16:36.644Z,69.49
2023-07-03T21:19:04.769Z,69.60
2023-07-03T21:21:32.936Z,69.52
2023-07-03T21:24:03.002Z,69.53
2023-07-03T21:26:31.228Z,69.58
2023-07-03T21:28:59.113Z,69.45
2023-07-03T21:31:28.519Z,69.46
2023-07-03T21:33:58.345Z,69.52
2023-07-03T21:36:27.525Z,69.72
2023-07-03T21:38:58.789Z,69.84
2023-07-03T21:41:32.294Z,70.02
2023-07-03T21:44:02.220Z,70.24
2023-07-03T21:46:32.269Z,70.12
2023-07-03T21:48:59.914Z,70.07
2023-07-03T21:51:28.384Z,70.29
2023-07-03T21:53:55.852Z,70.44
2023-07-03T21:56:28.299Z,70.44
2023-07-03T21:58:57.861Z,70.53
2023-07-03T22:01:34.657Z,70.46
2023-07-03T22:04:03.005Z,70.38
2023-07-03T22:06:30.457Z,70.41
2023-07-03T22:08:58.417Z,70.39
2023-07-03T22:11:26.626Z,70.58
2023-07-03T22:13:55.359Z,70.54
2023-07-03T22:16:22.893Z,70.63
2023-07-03T22:18:50.527Z,70.55
2023-07-03T22:21:18.920Z,70.52
2023-07-03T22:23:50.592Z,70.52
2023-07-03T22:26:18.179Z,70.48
2023-07-03T22:28:46.176Z,70.32
2023-07-03T22:31:13.770Z,70.19
2023-07-03T22:33:42.029Z,70.06
2023-07-03T22:36:10.390Z,70.02
2023-07-03T22:38:38.128Z,69.94
2023-07-03T22:41:05.536Z,69.88
2023-07-03T22:43:33.072Z,70.15
2023-07-03T22:46:05.291Z,69.97
2023-07-03T22:48:33.620Z,69.79
2023-07-03T22:51:03.866Z,69.90
2023-07-03T22:53:31.372Z,69.98
2023-07-03T22:55:58.888Z,69.99
2023-07-03T22:58:26.265Z,70.05
2023-07-03T23:00:59.530Z,70.01
2023-07-03T23:03:27.000Z,70.14
2023-07-03T23:06:00.368Z,70.23
2023-07-03T23:08:33.821Z,70.19
2023-07-03T23:11:10.293Z,70.11
2023-07-03T23:13:37.826Z,69.99
2023-07-03T23:16:10.543Z,70.13
2023-07-03T23:18:40.050Z,70.15
2023-07-03T23:21:12.740Z,70.09
2023-07-03T23:23:40.888Z,70.19
2023-07-03T23:26:12.330Z,70.33
2023-07-03T23:28:40.937Z,70.32
2023-07-03T23:31:15.348Z,70.24
2023-07-03T23:33:51.707Z,70.29
2023-07-03T23:36:24.003Z,70.43
2023-07-03T23:38:58.794Z,70.48
2023-07-03T23:41:26.193Z,70.55
2023-07-03T23:43:56.170Z,70.62
2023-07-03T23:46:27.208Z,70.48
2023-07-03T23:48:54.661Z,70.53
2023-07-03T23:51:22.106Z,70.52
2023-07-03T23:53:51.066Z,70.59
2023-07-03T23:56:19.410Z,70.64
2023-07-03T23:58:48.012Z,70.63
